Terminal Aerodrome Forecast
Issued by NWS

Home | Current Version | Previous Version | Text Only | Print | Product List | Glossary On
Versions: 1 2 3 4 5 6 7 8 9 10 11 12 13 14 15
000
FTUS44 KLZK 241700
TAFLIT
TAF
KLIT 241740Z 2418/2518 18015G25KT P6SM VCSH BKN025 OVC040
      TEMPO 2419/2423 5SM TSRA BR BKN025CB OVC040
     FM242300 17015G25KT P6SM VCTS SCT020 OVC040CB WS020/21050KT
      TEMPO 2423/2503 4SM TSRA BR BKN025CB OVC040
     FM250300 18008KT 5SM TSRA BR BKN025CB OVC040
     FM251000 20004KT 3SM BR OVC015
     FM251500 20007KT P6SM OVC025=

USA.gov is the U.S. government's official web portal to all federal, state and local government web resources and services.